Time;durP1;ratioP1;P1;durP2;ratioP2;P2;SDS_P1;SDS_P2;PMS_P1;PMS_P2;Temp;Humidity;BMP_temperature;BMP_pressure;BME280_temperature;BME280_humidity;BME280_pressure;Samples;Min_cycle;Max_cycle;Signal;HPM_P1;HPM_P2
2023/07/03 00:00:48;;;;;;;9.40;6.72;;;15.00;99.90;;;;;;5058374;28;20028;-75
2023/07/03 00:03:14;;;;;;;11.73;7.50;;;15.00;99.90;;;;;;5058086;28;20031;-75
2023/07/03 00:05:44;;;;;;;14.10;8.05;;;15.00;99.90;;;;;;5076269;28;20029;-75
2023/07/03 00:08:11;;;;;;;12.98;7.10;;;14.90;99.90;;;;;;5076247;28;20074;-75
2023/07/03 00:10:36;;;;;;;12.57;8.18;;;14.90;99.90;;;;;;5076255;28;20086;-75
2023/07/03 00:13:02;;;;;;;14.10;7.88;;;14.90;99.90;;;;;;5076111;28;20028;-75
2023/07/03 00:15:28;;;;;;;9.55;7.00;;;14.90;99.90;;;;;;5076476;28;20024;-75
2023/07/03 00:17:53;;;;;;;11.00;7.30;;;14.80;99.90;;;;;;5058144;28;20036;-75
2023/07/03 00:20:19;;;;;;;12.27;6.85;;;14.80;99.90;;;;;;5075719;28;20487;-75
2023/07/03 00:22:47;;;;;;;15.25;7.70;;;14.80;99.90;;;;;;5058063;28;20111;-75
2023/07/03 00:25:14;;;;;;;12.80;8.00;;;14.80;99.90;;;;;;5058063;28;20404;-75
2023/07/03 00:27:40;;;;;;;12.23;7.40;;;14.70;99.90;;;;;;5075895;28;20104;-75
2023/07/03 00:30:06;;;;;;;10.63;7.43;;;14.70;99.90;;;;;;5076048;28;20112;-75
2023/07/03 00:32:32;;;;;;;11.52;7.10;;;14.60;99.90;;;;;;5041342;28;20024;-75
2023/07/03 00:34:58;;;;;;;14.15;7.70;;;14.60;99.90;;;;;;5058048;28;20035;-75
2023/07/03 00:37:24;;;;;;;12.35;7.28;;;14.60;99.90;;;;;;5057759;28;20423;-75
2023/07/03 00:39:49;;;;;;;11.63;7.35;;;14.60;99.90;;;;;;5075645;28;20025;-75
2023/07/03 00:42:15;;;;;;;12.15;7.80;;;14.60;99.90;;;;;;5057704;28;20108;-75
2023/07/03 00:44:41;;;;;;;12.55;8.02;;;14.60;99.90;;;;;;5075515;28;20037;-75
2023/07/03 00:47:09;;;;;;;10.73;7.50;;;14.50;99.90;;;;;;5058063;28;20029;-75
2023/07/03 00:49:35;;;;;;;15.90;7.65;;;14.50;99.90;;;;;;5075276;28;20027;-75
2023/07/03 00:52:02;;;;;;;9.75;7.38;;;14.50;99.90;;;;;;5076058;28;20033;-75
2023/07/03 00:54:28;;;;;;;14.68;7.57;;;14.40;99.90;;;;;;5075656;28;20124;-75
2023/07/03 00:56:54;;;;;;;12.73;8.00;;;14.40;99.90;;;;;;5057576;28;20021;-75
2023/07/03 00:59:20;;;;;;;11.77;8.20;;;14.40;99.90;;;;;;5075333;28;20052;-75
2023/07/03 01:01:58;;;;;;;11.27;7.55;;;14.40;99.90;;;;;;5057847;28;20361;-75
2023/07/03 01:04:39;;;;;;;12.60;8.05;;;14.40;99.90;;;;;;5057208;28;20033;-75
2023/07/03 01:07:10;;;;;;;12.98;7.63;;;14.40;99.90;;;;;;5075772;28;20058;-75
2023/07/03 01:09:41;;;;;;;12.85;7.47;;;14.40;99.90;;;;;;5058106;28;20116;-75
2023/07/03 01:12:08;;;;;;;12.25;7.75;;;14.40;99.90;;;;;;5057792;28;20021;-75
2023/07/03 01:14:35;;;;;;;14.15;8.43;;;14.30;99.90;;;;;;5074504;28;20047;-75
2023/07/03 01:17:01;;;;;;;13.25;8.38;;;14.30;99.90;;;;;;5074980;28;20125;-75
2023/07/03 01:19:31;;;;;;;13.65;8.63;;;14.30;99.90;;;;;;5074811;28;20025;-76
2023/07/03 01:22:15;;;;;;;13.45;8.00;;;14.20;99.90;;;;;;5075024;28;20062;-75
2023/07/03 01:24:49;;;;;;;14.32;7.97;;;14.20;99.90;;;;;;5074560;28;20029;-75
2023/07/03 01:27:19;;;;;;;12.85;7.90;;;14.10;99.90;;;;;;5057245;28;20032;-75
2023/07/03 01:29:46;;;;;;;13.45;8.18;;;14.10;99.90;;;;;;5075035;28;20032;-75
2023/07/03 01:32:13;;;;;;;13.82;8.55;;;14.10;99.90;;;;;;5074366;28;20473;-75
2023/07/03 01:34:45;;;;;;;12.35;7.78;;;14.10;99.90;;;;;;5074698;28;20028;-75
2023/07/03 01:37:12;;;;;;;10.60;7.90;;;14.00;99.90;;;;;;5075037;28;20032;-76
2023/07/03 01:39:38;;;;;;;13.68;8.43;;;14.00;99.90;;;;;;5056913;28;20024;-75
2023/07/03 01:42:07;;;;;;;12.75;8.48;;;14.00;99.90;;;;;;5074619;28;20024;-75
2023/07/03 01:44:32;;;;;;;11.40;7.83;;;14.00;99.90;;;;;;5074482;28;20060;-75
2023/07/03 01:47:07;;;;;;;21.00;9.65;;;14.00;99.90;;;;;;5074151;28;20348;-75
2023/07/03 01:49:32;;;;;;;12.63;8.23;;;14.00;99.90;;;;;;5056237;28;20032;-75
2023/07/03 01:52:07;;;;;;;13.93;8.82;;;14.00;99.90;;;;;;5074581;28;20028;-75
2023/07/03 01:54:52;;;;;;;15.13;8.82;;;14.00;99.90;;;;;;5057320;28;20032;-75
2023/07/03 01:57:46;;;;;;;15.35;8.27;;;14.00;99.90;;;;;;5074687;28;20127;-75
2023/07/03 02:00:18;;;;;;;16.02;9.20;;;14.00;99.90;;;;;;5074059;28;20023;-75
2023/07/03 02:02:47;;;;;;;15.95;9.35;;;14.00;99.90;;;;;;5074138;28;20020;-75
2023/07/03 02:05:22;;;;;;;12.75;8.65;;;13.90;99.90;;;;;;5056099;28;20468;-75
2023/07/03 02:07:52;;;;;;;14.70;9.05;;;13.90;99.90;;;;;;5056333;28;20110;-75
2023/07/03 02:10:18;;;;;;;13.57;8.98;;;13.90;99.90;;;;;;5056242;28;20030;-75
2023/07/03 02:12:45;;;;;;;16.98;8.80;;;13.90;99.90;;;;;;5056090;28;20035;-75
2023/07/03 02:15:11;;;;;;;15.05;9.50;;;13.90;99.90;;;;;;5074114;28;20028;-75
2023/07/03 02:17:37;;;;;;;16.45;9.02;;;13.80;99.90;;;;;;5056056;28;20353;-75
2023/07/03 02:20:03;;;;;;;14.30;9.18;;;13.80;99.90;;;;;;5073969;28;20123;-75
2023/07/03 02:22:30;;;;;;;14.25;9.32;;;13.80;99.90;;;;;;5073736;28;20561;-75
2023/07/03 02:24:55;;;;;;;16.77;9.20;;;13.80;99.90;;;;;;5056219;28;20037;-75
2023/07/03 02:27:21;;;;;;;15.25;8.75;;;13.80;99.90;;;;;;5073546;28;20071;-75
2023/07/03 02:29:49;;;;;;;15.75;9.07;;;13.70;99.90;;;;;;5073900;28;20069;-75
2023/07/03 02:32:15;;;;;;;19.75;9.63;;;13.70;99.90;;;;;;5055876;28;20025;-75
2023/07/03 02:34:40;;;;;;;17.48;10.15;;;13.70;99.90;;;;;;5073531;28;20028;-75
2023/07/03 02:37:09;;;;;;;17.10;9.90;;;13.70;99.90;;;;;;5055870;28;20085;-75
2023/07/03 02:39:35;;;;;;;15.02;9.15;;;13.70;99.90;;;;;;5073794;28;20464;-75
2023/07/03 02:42:00;;;;;;;15.98;9.35;;;13.60;99.90;;;;;;5055733;28;20029;-75
2023/07/03 02:44:26;;;;;;;14.48;8.98;;;13.60;99.90;;;;;;5073882;28;20032;-75
2023/07/03 02:46:52;;;;;;;13.27;8.82;;;13.60;99.90;;;;;;5055754;28;20052;-76
2023/07/03 02:49:17;;;;;;;29.48;9.32;;;13.60;99.90;;;;;;5073952;28;20028;-75
2023/07/03 02:51:43;;;;;;;17.10;9.88;;;13.60;99.90;;;;;;5073536;28;20052;-75
2023/07/03 02:54:09;;;;;;;14.90;9.27;;;13.60;99.90;;;;;;5073532;28;20587;-76
2023/07/03 02:56:35;;;;;;;14.07;8.45;;;13.60;99.90;;;;;;5055451;28;20526;-76
2023/07/03 02:59:01;;;;;;;15.25;9.13;;;13.60;99.90;;;;;;5056735;28;20368;-76
2023/07/03 03:01:27;;;;;;;16.48;9.48;;;13.50;99.90;;;;;;5073260;28;20028;-76
2023/07/03 03:03:54;;;;;;;17.08;9.55;;;13.50;99.90;;;;;;5073399;28;20032;-76
2023/07/03 03:06:20;;;;;;;17.65;9.77;;;13.50;99.90;;;;;;5073473;28;20025;-75
2023/07/03 03:08:45;;;;;;;15.05;8.80;;;13.50;99.90;;;;;;5073593;28;20047;-75
2023/07/03 03:11:11;;;;;;;15.35;9.15;;;13.50;99.90;;;;;;5073680;28;20055;-76
2023/07/03 03:13:37;;;;;;;15.23;9.38;;;13.50;99.90;;;;;;5073540;28;20110;-76
2023/07/03 03:16:02;;;;;;;16.77;10.18;;;13.50;99.90;;;;;;5073421;28;20036;-76
2023/07/03 03:18:28;;;;;;;14.60;9.13;;;13.50;99.90;;;;;;5073456;28;20025;-76
2023/07/03 03:20:53;;;;;;;14.05;9.75;;;13.50;99.90;;;;;;5055455;28;20537;-75
2023/07/03 03:23:20;;;;;;;14.40;9.57;;;13.50;99.90;;;;;;5073268;28;20021;-76
2023/07/03 03:25:46;;;;;;;17.35;9.23;;;13.50;99.90;;;;;;5055459;28;20028;-76
2023/07/03 03:28:11;;;;;;;14.45;9.77;;;13.50;99.90;;;;;;5055300;28;20021;-76
2023/07/03 03:30:38;;;;;;;20.35;9.88;;;13.60;99.90;;;;;;5073036;28;20430;-76
2023/07/03 03:33:03;;;;;;;15.95;9.43;;;13.60;99.90;;;;;;5056004;28;20025;-76
2023/07/03 03:35:29;;;;;;;19.35;10.45;;;13.60;99.90;;;;;;5073278;28;20028;-75
2023/07/03 03:37:55;;;;;;;16.00;9.95;;;13.60;99.90;;;;;;5073919;28;20082;-76
2023/07/03 03:40:20;;;;;;;15.20;9.55;;;13.60;99.90;;;;;;5077109;28;20029;-76
2023/07/03 03:42:46;;;;;;;18.20;10.35;;;13.60;99.90;;;;;;5076776;28;20035;-76
2023/07/03 03:45:11;;;;;;;14.15;10.02;;;13.70;99.90;;;;;;5076398;28;20028;-76
2023/07/03 03:47:37;;;;;;;18.55;9.93;;;13.70;99.90;;;;;;5076724;28;20052;-76
2023/07/03 03:50:03;;;;;;;14.52;8.88;;;13.70;99.90;;;;;;5066561;28;20044;-76
2023/07/03 03:52:29;;;;;;;13.25;8.68;;;13.70;99.90;;;;;;5097202;28;20028;-76
2023/07/03 03:54:54;;;;;;;15.27;9.40;;;13.80;99.90;;;;;;5095785;28;20326;-76
2023/07/03 03:57:21;;;;;;;16.67;9.40;;;13.80;99.90;;;;;;5096662;28;20101;-76
2023/07/03 03:59:46;;;;;;;15.13;8.70;;;13.80;99.90;;;;;;5096436;28;20024;-76
2023/07/03 04:02:12;;;;;;;13.77;9.05;;;13.90;99.90;;;;;;5096630;28;20479;-76
2023/07/03 04:04:38;;;;;;;16.90;9.32;;;13.90;99.90;;;;;;5096605;28;20437;-75
2023/07/03 04:07:04;;;;;;;14.23;9.40;;;14.00;99.90;;;;;;5096637;28;20414;-75
2023/07/03 04:09:29;;;;;;;18.02;9.13;;;14.00;99.90;;;;;;5096211;28;20060;-75
2023/07/03 04:11:55;;;;;;;15.15;9.50;;;14.10;99.90;;;;;;5096457;28;20063;-75
2023/07/03 04:14:21;;;;;;;15.50;9.90;;;14.10;99.90;;;;;;5096352;28;20536;-75
2023/07/03 04:16:47;;;;;;;13.98;9.10;;;14.20;99.90;;;;;;5096287;28;20039;-75
2023/07/03 04:19:14;;;;;;;14.15;8.65;;;14.20;99.90;;;;;;5096482;28;20027;-76
2023/07/03 04:21:40;;;;;;;14.57;8.98;;;14.30;99.90;;;;;;5095057;28;20024;-76
2023/07/03 04:24:06;;;;;;;15.65;9.35;;;14.30;99.90;;;;;;5095829;28;20032;-76
2023/07/03 04:26:32;;;;;;;15.05;8.70;;;14.40;99.90;;;;;;5096046;28;20024;-77
2023/07/03 04:28:58;;;;;;;13.93;9.05;;;14.50;99.90;;;;;;5094930;28;20024;-76
2023/07/03 04:31:24;;;;;;;11.75;8.52;;;14.60;99.90;;;;;;5094753;28;20027;-76
2023/07/03 04:33:50;;;;;;;12.95;8.77;;;14.60;99.90;;;;;;5095204;28;20162;-76
2023/07/03 04:36:20;;;;;;;15.30;9.55;;;14.70;99.90;;;;;;5095845;28;20111;-76
2023/07/03 04:38:46;;;;;;;15.18;9.32;;;14.80;99.90;;;;;;5095921;28;20132;-75
2023/07/03 04:41:12;;;;;;;15.68;9.25;;;14.80;99.90;;;;;;5095809;28;20492;-77
2023/07/03 04:43:44;;;;;;;16.20;9.63;;;14.90;99.90;;;;;;5094700;28;20184;-77
2023/07/03 04:46:11;;;;;;;13.15;9.27;;;14.90;99.90;;;;;;5095960;28;20113;-77
2023/07/03 04:48:36;;;;;;;19.00;9.88;;;15.00;99.90;;;;;;5095774;28;20043;-76
2023/07/03 04:51:03;;;;;;;14.45;8.38;;;15.10;99.90;;;;;;5080701;28;20419;-86
2023/07/03 04:53:31;;;;;;;14.10;9.43;;;15.20;99.90;;;;;;5058863;28;20028;-85
2023/07/03 04:55:57;;;;;;;14.07;9.65;;;15.30;99.90;;;;;;5058026;28;20032;-87
2023/07/03 04:58:23;;;;;;;12.52;8.60;;;15.40;99.90;;;;;;5058243;28;20043;-86
2023/07/03 05:00:48;;;;;;;16.88;8.20;;;15.50;99.90;;;;;;5076075;28;20452;-79
2023/07/03 05:03:15;;;;;;;16.52;9.25;;;15.60;99.90;;;;;;5057407;28;20464;-91
2023/07/03 05:05:40;;;;;;;10.80;7.78;;;15.70;99.90;;;;;;5076135;28;20086;-89
2023/07/03 05:08:06;;;;;;;14.75;9.00;;;15.80;99.90;;;;;;5057300;28;20033;-79
2023/07/03 05:10:32;;;;;;;16.77;8.70;;;15.90;99.90;;;;;;5057428;28;20071;-81
2023/07/03 05:12:58;;;;;;;14.77;8.27;;;16.10;99.90;;;;;;5075259;28;20031;-88
2023/07/03 05:15:24;;;;;;;12.25;8.15;;;16.20;99.90;;;;;;5075028;28;20111;-82
2023/07/03 05:17:52;;;;;;;13.10;8.57;;;16.30;99.90;;;;;;5075037;28;20535;-81
2023/07/03 05:20:19;;;;;;;13.00;8.02;;;16.30;99.90;;;;;;5075004;28;20346;-84
2023/07/03 05:22:45;;;;;;;14.02;8.95;;;16.50;99.90;;;;;;5074879;28;20031;-85
2023/07/03 05:25:13;;;;;;;16.35;8.80;;;16.60;99.90;;;;;;5075131;28;20108;-80
2023/07/03 05:27:39;;;;;;;17.00;8.50;;;16.80;99.90;;;;;;5056911;28;20411;-77
2023/07/03 05:30:06;;;;;;;13.10;7.93;;;16.90;99.90;;;;;;5074635;28;20021;-79
2023/07/03 05:32:32;;;;;;;13.23;8.25;;;17.10;99.90;;;;;;5056205;28;20024;-81
2023/07/03 05:34:59;;;;;;;13.57;8.85;;;17.20;99.90;;;;;;5074298;28;20039;-82
2023/07/03 05:37:25;;;;;;;11.48;8.18;;;17.30;99.90;;;;;;5074917;28;20491;-80
2023/07/03 05:39:51;;;;;;;12.95;8.38;;;17.40;99.90;;;;;;5056812;28;20111;-79
2023/07/03 05:42:17;;;;;;;16.63;8.38;;;17.50;99.90;;;;;;5056439;28;20392;-79
2023/07/03 05:44:43;;;;;;;12.60;8.20;;;17.60;99.90;;;;;;5056348;28;20033;-78
2023/07/03 05:47:10;;;;;;;16.75;7.63;;;17.80;99.90;;;;;;5074342;28;20079;-79
2023/07/03 05:49:35;;;;;;;12.27;8.77;;;17.90;99.90;;;;;;5055709;28;20111;-78
2023/07/03 05:52:01;;;;;;;13.98;7.95;;;18.00;99.90;;;;;;5074255;28;20111;-79
2023/07/03 05:54:27;;;;;;;14.55;8.68;;;18.20;99.90;;;;;;5074158;28;20434;-79
2023/07/03 05:57:00;;;;;;;10.02;7.65;;;18.30;99.90;;;;;;5057075;28;20515;-78
2023/07/03 05:59:26;;;;;;;12.45;8.50;;;18.50;99.90;;;;;;5056171;28;20024;-78
2023/07/03 06:01:54;;;;;;;12.38;8.38;;;18.60;99.90;;;;;;5056244;28;20025;-78
2023/07/03 06:04:22;;;;;;;13.52;8.48;;;18.80;99.90;;;;;;5056100;28;20032;-78
2023/07/03 06:06:57;;;;;;;14.00;8.38;;;18.90;99.90;;;;;;5056173;28;20380;-78
2023/07/03 06:09:23;;;;;;;14.80;7.95;;;19.20;99.90;;;;;;5074580;28;20035;-77
2023/07/03 06:11:49;;;;;;;15.77;8.65;;;19.40;99.90;;;;;;5056144;28;20047;-77
2023/07/03 06:14:17;;;;;;;12.32;8.10;;;19.50;99.90;;;;;;5074223;28;20024;-77
2023/07/03 06:16:44;;;;;;;11.52;7.88;;;19.70;99.90;;;;;;5056203;28;20082;-77
2023/07/03 06:19:10;;;;;;;11.43;7.63;;;20.00;99.90;;;;;;5056109;28;20033;-76
2023/07/03 06:21:37;;;;;;;11.75;7.95;;;20.40;99.90;;;;;;5074462;28;20227;-76
2023/07/03 06:24:04;;;;;;;12.40;8.30;;;21.00;99.90;;;;;;5056374;28;20033;-77
2023/07/03 06:26:30;;;;;;;11.45;7.82;;;21.60;99.90;;;;;;5055844;28;20028;-77
2023/07/03 06:28:56;;;;;;;11.88;7.68;;;21.80;99.90;;;;;;5073791;28;20028;-77
2023/07/03 06:31:22;;;;;;;11.13;8.07;;;21.80;99.90;;;;;;5074004;28;20456;-77
2023/07/03 06:33:48;;;;;;;15.40;8.02;;;21.60;99.90;;;;;;5073976;28;20119;-77
2023/07/03 06:36:20;;;;;;;9.77;8.05;;;21.80;99.90;;;;;;5055839;28;20092;-78
2023/07/03 06:38:58;;;;;;;12.13;7.93;;;22.20;99.90;;;;;;5055867;28;20020;-80
2023/07/03 06:41:26;;;;;;;13.35;7.63;;;22.60;99.90;;;;;;5073774;28;20024;-78
2023/07/03 06:43:52;;;;;;;13.55;8.23;;;22.60;99.90;;;;;;5073812;28;20123;-78
2023/07/03 06:46:18;;;;;;;12.77;8.40;;;22.60;99.90;;;;;;5073663;28;20523;-80
2023/07/03 06:48:44;;;;;;;13.60;8.60;;;22.70;99.90;;;;;;5073760;28;20100;-79
2023/07/03 06:51:12;;;;;;;12.85;8.43;;;22.90;99.90;;;;;;5073786;28;20111;-79
2023/07/03 06:53:38;;;;;;;11.60;8.32;;;23.20;99.90;;;;;;5055668;28;20024;-78
2023/07/03 06:56:06;;;;;;;11.75;8.50;;;23.30;99.90;;;;;;5055551;28;20029;-78
2023/07/03 06:58:33;;;;;;;13.95;9.27;;;23.40;99.90;;;;;;5073520;28;20392;-80
2023/07/03 07:01:06;;;;;;;12.00;8.35;;;23.70;99.90;;;;;;5055618;28;20029;-80
2023/07/03 07:03:31;;;;;;;12.98;8.90;;;24.10;99.10;;;;;;5073115;28;20163;-79
2023/07/03 07:05:57;;;;;;;10.70;8.10;;;24.40;99.10;;;;;;5073562;28;20112;-80
2023/07/03 07:08:23;;;;;;;13.30;8.60;;;24.80;97.80;;;;;;5073762;28;20024;-80
2023/07/03 07:10:48;;;;;;;11.60;8.73;;;25.00;97.70;;;;;;5073572;28;20024;-80
2023/07/03 07:13:14;;;;;;;14.43;8.80;;;25.10;96.20;;;;;;5056618;28;20025;-80
2023/07/03 07:15:41;;;;;;;13.80;9.25;;;24.80;96.50;;;;;;5059343;28;20024;-80
2023/07/03 07:18:08;;;;;;;13.75;8.73;;;24.60;96.50;;;;;;5077007;28;20369;-79
2023/07/03 07:20:41;;;;;;;15.55;8.63;;;24.50;97.00;;;;;;5059409;28;20419;-79
2023/07/03 07:23:07;;;;;;;13.52;8.65;;;24.20;97.50;;;;;;5077345;28;20213;-79
2023/07/03 07:25:34;;;;;;;12.20;9.10;;;24.30;97.70;;;;;;5076906;28;20039;-78
2023/07/03 07:27:59;;;;;;;12.82;8.85;;;24.50;97.70;;;;;;5076860;28;20472;-79
2023/07/03 07:30:25;;;;;;;13.27;8.55;;;24.80;96.60;;;;;;5059079;28;20218;-79
2023/07/03 07:32:51;;;;;;;13.63;8.48;;;24.90;96.50;;;;;;5077173;28;20024;-80
2023/07/03 07:35:17;;;;;;;12.70;9.38;;;24.70;95.90;;;;;;5059070;28;20065;-79
2023/07/03 07:37:43;;;;;;;12.55;9.00;;;24.60;96.50;;;;;;5077180;28;20013;-79
2023/07/03 07:40:09;;;;;;;14.50;9.13;;;24.60;96.40;;;;;;5076955;28;20043;-79
2023/07/03 07:42:36;;;;;;;11.45;9.38;;;24.50;95.80;;;;;;5077028;28;20085;-78
2023/07/03 07:45:03;;;;;;;14.02;8.85;;;24.20;95.00;;;;;;5058765;28;20476;-78
2023/07/03 07:47:29;;;;;;;12.27;8.85;;;24.10;95.40;;;;;;5059182;28;20169;-78
2023/07/03 07:49:55;;;;;;;12.63;8.65;;;24.10;95.60;;;;;;5076646;28;20091;-79
2023/07/03 07:52:23;;;;;;;13.70;9.00;;;24.40;95.20;;;;;;5076606;28;20071;-78
2023/07/03 07:54:56;;;;;;;13.43;9.10;;;24.60;94.30;;;;;;5076300;28;20460;-79
2023/07/03 07:57:23;;;;;;;15.23;9.50;;;24.80;94.50;;;;;;5076681;28;20469;-79
2023/07/03 07:59:48;;;;;;;12.35;8.85;;;25.00;94.00;;;;;;5076655;28;20024;-78
2023/07/03 08:02:14;;;;;;;11.98;8.93;;;25.00;93.80;;;;;;5058444;28;20035;-79
2023/07/03 08:04:39;;;;;;;12.60;8.75;;;25.40;93.10;;;;;;5075965;28;20064;-79
2023/07/03 08:07:05;;;;;;;13.40;10.07;;;25.80;92.90;;;;;;5076030;28;20047;-79
2023/07/03 08:09:31;;;;;;;10.75;8.65;;;26.10;91.50;;;;;;5076233;28;20032;-79
2023/07/03 08:11:57;;;;;;;15.07;8.85;;;26.40;90.90;;;;;;5058403;28;20090;-79
2023/07/03 08:14:22;;;;;;;11.07;8.70;;;26.70;90.70;;;;;;5058182;28;20116;-79
2023/07/03 08:16:48;;;;;;;11.75;9.00;;;26.90;90.10;;;;;;5058201;28;20024;-80
2023/07/03 08:19:14;;;;;;;12.18;8.60;;;27.20;87.60;;;;;;5058164;28;20032;-79
2023/07/03 08:21:39;;;;;;;12.50;9.50;;;27.30;85.90;;;;;;5076184;28;20052;-79
2023/07/03 08:24:05;;;;;;;12.75;9.48;;;27.70;85.60;;;;;;5057746;28;20545;-80
2023/07/03 08:26:31;;;;;;;16.13;9.70;;;28.10;81.00;;;;;;5076026;28;20024;-79
2023/07/03 08:28:57;;;;;;;12.63;9.27;;;27.80;80.20;;;;;;5058113;28;20024;-79
2023/07/03 08:31:23;;;;;;;12.30;9.27;;;27.20;81.10;;;;;;5075843;28;20154;-79
2023/07/03 08:33:48;;;;;;;12.43;9.30;;;26.90;83.20;;;;;;5057882;28;20035;-79
2023/07/03 08:36:14;;;;;;;16.63;10.18;;;26.90;83.60;;;;;;5076011;28;20032;-80
2023/07/03 08:38:40;;;;;;;13.60;10.15;;;26.80;81.60;;;;;;5057775;28;20021;-80
2023/07/03 08:41:12;;;;;;;12.50;10.07;;;26.60;81.60;;;;;;5075601;28;20032;-80
2023/07/03 08:43:41;;;;;;;16.63;10.68;;;26.50;81.80;;;;;;5057867;28;20418;-80
2023/07/03 08:46:13;;;;;;;14.63;10.00;;;26.40;83.20;;;;;;5057568;28;20472;-80
2023/07/03 08:48:41;;;;;;;15.65;9.93;;;26.40;82.40;;;;;;5075592;28;20461;-80
2023/07/03 08:51:14;;;;;;;14.95;10.73;;;26.50;82.40;;;;;;5075491;28;20048;-80
2023/07/03 08:53:42;;;;;;;13.52;9.98;;;26.40;81.40;;;;;;5075705;28;20028;-80
2023/07/03 08:56:26;;;;;;;14.43;9.95;;;26.50;81.20;;;;;;5075825;28;20071;-80
2023/07/03 08:58:56;;;;;;;11.45;9.82;;;26.70;81.20;;;;;;5075743;28;20021;-80
2023/07/03 09:01:53;;;;;;;15.80;10.02;;;27.10;78.80;;;;;;5057245;28;20053;-80
2023/07/03 09:04:50;;;;;;;13.52;9.70;;;27.50;78.50;;;;;;5023848;28;20040;-80
2023/07/03 09:07:46;;;;;;;13.77;9.82;;;27.50;76.00;;;;;;5057348;28;20035;-80
2023/07/03 09:10:24;;;;;;;14.85;9.75;;;27.70;76.00;;;;;;5056879;28;20047;-80
2023/07/03 09:12:58;;;;;;;17.70;9.70;;;28.20;73.20;;;;;;5075327;28;20020;-80
2023/07/03 09:15:39;;;;;;;15.85;10.27;;;28.90;73.60;;;;;;5075152;28;20028;-80
2023/07/03 09:18:12;;;;;;;15.15;9.60;;;29.30;71.00;;;;;;5075223;28;20460;-80
2023/07/03 09:20:40;;;;;;;12.88;9.80;;;28.90;68.20;;;;;;5075003;28;20024;-81
2023/07/03 09:23:16;;;;;;;14.20;9.90;;;28.60;70.40;;;;;;5057036;28;20054;-80
2023/07/03 09:25:51;;;;;;;12.77;9.80;;;28.90;69.00;;;;;;5057110;28;20037;-80
2023/07/03 09:28:17;;;;;;;13.57;9.95;;;29.40;68.40;;;;;;5074848;28;20039;-81
2023/07/03 09:30:43;;;;;;;13.23;9.80;;;29.60;65.40;;;;;;5057114;28;20366;-79
2023/07/03 09:33:09;;;;;;;14.98;10.57;;;29.20;65.20;;;;;;5075084;28;20041;-80
2023/07/03 09:35:42;;;;;;;12.63;9.57;;;28.60;65.80;;;;;;5056209;28;20064;-80
2023/07/03 09:38:26;;;;;;;14.00;10.15;;;28.20;68.10;;;;;;5074865;28;20077;-80
2023/07/03 09:40:54;;;;;;;18.30;9.85;;;28.20;67.40;;;;;;5056908;28;20411;-80
2023/07/03 09:43:22;;;;;;;15.88;10.95;;;28.10;65.90;;;;;;5074589;28;20364;-80
2023/07/03 09:45:50;;;;;;;13.70;10.20;;;28.00;66.30;;;;;;5074453;28;20039;-80
2023/07/03 09:48:21;;;;;;;14.40;10.10;;;27.90;65.00;;;;;;5074350;28;20024;-80
2023/07/03 09:50:47;;;;;;;13.95;9.50;;;27.70;64.70;;;;;;5074624;28;20090;-80
2023/07/03 09:53:22;;;;;;;12.10;9.25;;;27.50;65.20;;;;;;5056337;28;20125;-80
2023/07/03 09:56:00;;;;;;;16.48;9.68;;;27.50;62.50;;;;;;5056373;28;20056;-79
2023/07/03 09:58:27;;;;;;;;;;;27.40;62.90;;;;;;5056525;28;20021;-79
2023/07/03 10:00:55;;;;;;;15.27;9.68;;;27.90;62.40;;;;;;5074049;28;20038;-79
2023/07/03 10:03:23;;;;;;;15.65;9.77;;;28.80;62.50;;;;;;5074147;28;20020;-79
2023/07/03 10:05:49;;;;;;;12.30;9.30;;;29.80;59.50;;;;;;5056000;28;20193;-79
2023/07/03 10:08:22;;;;;;;13.23;9.32;;;30.80;59.00;;;;;;5074029;28;20472;-78
2023/07/03 10:10:50;;;;;;;14.80;9.43;;;31.70;55.20;;;;;;5056162;28;20028;-79
2023/07/03 10:13:35;;;;;;;12.43;8.93;;;32.30;54.20;;;;;;5055934;28;20376;-78
2023/07/03 10:16:03;;;;;;;11.15;8.68;;;31.90;50.90;;;;;;5074087;28;20029;-78
2023/07/03 10:18:37;;;;;;;11.82;9.07;;;31.70;50.80;;;;;;5073850;28;20021;-78
2023/07/03 10:21:08;;;;;;;12.05;8.75;;;31.00;52.00;;;;;;5074112;28;20029;-78
2023/07/03 10:23:37;;;;;;;12.80;9.45;;;30.20;53.70;;;;;;5074140;28;20031;-78
2023/07/03 10:26:32;;;;;;;15.77;9.38;;;29.50;55.00;;;;;;5055755;28;20047;-78
2023/07/03 10:29:30;;;;;;;12.98;9.15;;;28.90;56.30;;;;;;5055849;28;20025;-79
2023/07/03 10:32:11;;;;;;;13.55;9.23;;;28.60;56.00;;;;;;5056048;28;20471;-78
2023/07/03 10:34:59;;;;;;;17.48;9.75;;;28.70;55.80;;;;;;5074416;28;20064;-79
2023/07/03 10:37:26;;;;;;;15.52;9.27;;;28.80;54.80;;;;;;5074191;28;20031;-79
2023/07/03 10:40:15;;;;;;;14.63;9.00;;;29.00;55.30;;;;;;5056022;28;20036;-78
2023/07/03 10:42:44;;;;;;;;;;;29.70;55.50;;;;;;5056618;28;20417;-78
2023/07/03 10:45:13;;;;;;;13.63;9.13;;;30.00;53.80;;;;;;5055652;28;19916;-78
2023/07/03 10:47:54;;;;;;;12.50;10.43;;;29.90;52.90;;;;;;5056572;28;20115;-78
2023/07/03 10:50:31;;;;;;;14.95;9.68;;;29.50;54.20;;;;;;5072529;28;20044;-78
2023/07/03 10:53:02;;;;;;;13.73;9.70;;;28.90;51.80;;;;;;5098189;28;20020;-78
2023/07/03 10:55:43;;;;;;;12.88;9.95;;;28.80;52.20;;;;;;5098342;28;20028;-78
2023/07/03 10:58:33;;;;;;;17.00;8.90;;;28.60;52.90;;;;;;5098156;28;20066;-78
2023/07/03 11:01:28;;;;;;;17.50;9.57;;;28.40;53.10;;;;;;5097736;28;20028;-78
2023/07/03 11:04:12;;;;;;;15.73;9.27;;;28.40;51.80;;;;;;5096711;28;20081;-78
2023/07/03 11:06:47;;;;;;;13.90;9.55;;;28.30;52.30;;;;;;5097552;28;20085;-79
2023/07/03 11:09:30;;;;;;;13.30;9.63;;;28.40;54.00;;;;;;5097751;28;20024;-78
2023/07/03 11:12:27;;;;;;;12.35;9.27;;;29.20;52.00;;;;;;5096847;28;20028;-78
2023/07/03 11:15:14;;;;;;;15.77;10.00;;;29.20;52.20;;;;;;5097685;28;20032;-78
2023/07/03 11:18:00;;;;;;;14.15;9.35;;;29.40;52.10;;;;;;5097588;28;20441;-78
2023/07/03 11:20:31;;;;;;;13.27;9.30;;;29.30;51.60;;;;;;5098241;28;20024;-79
2023/07/03 11:23:21;;;;;;;13.93;10.18;;;28.70;52.00;;;;;;5097991;28;20043;-79
2023/07/03 11:25:53;;;;;;;14.40;9.65;;;28.60;52.40;;;;;;5096769;28;20087;-79
2023/07/03 11:28:37;;;;;;;16.17;9.48;;;28.40;53.40;;;;;;5096125;28;20031;-79
2023/07/03 11:31:04;;;;;;;13.95;9.68;;;28.30;54.30;;;;;;5097534;28;20021;-79
2023/07/03 11:33:32;;;;;;;14.30;9.90;;;28.30;54.40;;;;;;5097311;28;20024;-79
2023/07/03 11:36:00;;;;;;;17.67;9.77;;;28.60;55.70;;;;;;5097383;28;20031;-79
2023/07/03 11:38:27;;;;;;;14.32;10.20;;;29.00;54.20;;;;;;5097166;28;20107;-79
2023/07/03 11:40:56;;;;;;;13.57;9.77;;;29.00;53.50;;;;;;5095946;28;20024;-79
2023/07/03 11:43:28;;;;;;;13.05;10.35;;;29.50;54.10;;;;;;5096833;28;20023;-78
2023/07/03 11:46:15;;;;;;;14.88;9.98;;;29.60;53.30;;;;;;5096597;28;20450;-78
2023/07/03 11:48:48;;;;;;;13.87;9.10;;;30.50;50.30;;;;;;5097195;28;20028;-78
2023/07/03 11:51:16;;;;;;;10.52;8.48;;;30.90;49.90;;;;;;5081104;28;20143;-78
2023/07/03 11:53:54;;;;;;;13.68;8.90;;;31.50;47.80;;;;;;5076680;28;20052;-78
2023/07/03 11:56:44;;;;;;;12.55;8.50;;;31.80;47.20;;;;;;5076649;28;20036;-78
2023/07/03 11:59:12;;;;;;;13.45;8.55;;;31.60;46.60;;;;;;5058306;28;20073;-78
2023/07/03 12:01:38;;;;;;;10.35;8.00;;;31.70;47.10;;;;;;5058649;28;20036;-78
2023/07/03 12:04:07;;;;;;;11.98;8.52;;;31.50;46.70;;;;;;5076667;28;20062;-78
2023/07/03 12:06:39;;;;;;;12.68;8.20;;;31.10;46.20;;;;;;5076447;28;20021;-78
2023/07/03 12:09:26;;;;;;;13.95;8.40;;;30.90;47.10;;;;;;5058840;28;20020;-79
2023/07/03 12:12:03;;;;;;;11.73;8.23;;;30.00;47.80;;;;;;5058509;28;20388;-79
2023/07/03 12:14:41;;;;;;;12.23;8.65;;;29.90;48.30;;;;;;5058525;28;20039;-78
2023/07/03 12:17:19;;;;;;;14.25;8.73;;;29.30;48.50;;;;;;5076408;28;20119;-79
2023/07/03 12:19:46;;;;;;;11.82;8.82;;;29.00;49.60;;;;;;5058846;28;20021;-79
2023/07/03 12:22:20;;;;;;;11.77;8.45;;;29.70;49.60;;;;;;5058152;28;20379;-80
2023/07/03 12:24:45;;;;;;;11.07;8.48;;;30.50;49.00;;;;;;5076352;28;20032;-81
2023/07/03 12:27:11;;;;;;;13.35;8.70;;;30.80;49.20;;;;;;5076327;28;20035;-79
2023/07/03 12:29:47;;;;;;;10.88;7.97;;;31.00;48.20;;;;;;5065974;28;20025;-78
2023/07/03 12:32:29;;;;;;;10.73;8.18;;;30.80;49.30;;;;;;5063716;28;20032;-79
2023/07/03 12:35:18;;;;;;;12.68;8.50;;;30.60;49.00;;;;;;5037800;28;20029;-80
2023/07/03 12:37:47;;;;;;;11.85;7.88;;;30.30;49.20;;;;;;5055732;28;20044;-72
2023/07/03 12:40:15;;;;;;;9.07;7.63;;;30.40;50.40;;;;;;5055645;28;20029;-71
2023/07/03 12:42:43;;;;;;;13.18;8.55;;;30.10;51.50;;;;;;5037637;28;20036;-70
2023/07/03 12:45:19;;;;;;;13.20;7.95;;;29.70;50.00;;;;;;5055757;28;20415;-73
2023/07/03 12:47:46;;;;;;;12.73;8.77;;;28.70;55.40;;;;;;5055546;28;20044;-72